Hovedside
METAR-TAF:

METAR-TAF

Lufthavner :

Murmansk, Russland

Murmansk lufthavn

breddegrad: 68-58N, lengdegrad: 033-03E, høyde over havet: 51 m

Gjeldene værobservasjon

Denne rapporten ble laget for 26 minutter siden, klokken 10:00 UTC
Vind 8 kt fra Øst-sørøst, skiftende mellom Øst-nordøst og Sørøst
Temperatur 16°C
Luftfuktighet 29%
Trykk 1000 hPa
Sikt 10 km eller mer
ingen skyer under 1500 m og ingen bygeskyer

METAR: ULMM 251000Z 11004MPS 070V140 CAVOK 16/M02 Q1000 R13/090070 NOSIG RMK QFE743

Tid: 13:26 (10:26 UTC)


TAF: fraværende

Værobservasjoner og værvarsel for over 4000 flyplasser (METAR- og TAF-rapporter).

Tilgjengelige stasjoner er representert av de røde og gule prikkene på kartet.

Hold musepekeren over prikken for å se navnet på stasjonen.

Klikk så for å se værobservasjoner og -varsler.

For å forandre kartet kan du klikke på den grønne knappen med svart kryss for å zoome inn, på den grønne knappen med strek for å zoome ut, eller på de grønne pilene for å se tilstøtende kart.


METAR-TAF: